sensor_id;sensor_type;location;lat;lon;timestamp;P1;durP1;ratioP1;P2;durP2;ratioP2
75441;SDS011;64019;48.312;14.226;2023-09-19T00:01:12;4.80;;;2.10;;
75441;SDS011;64019;48.312;14.226;2023-09-19T00:03:39;3.37;;;2.47;;
75441;SDS011;64019;48.312;14.226;2023-09-19T00:06:07;4.13;;;2.70;;
75441;SDS011;64019;48.312;14.226;2023-09-19T00:08:36;5.03;;;2.67;;
75441;SDS011;64019;48.312;14.226;2023-09-19T00:11:02;4.67;;;3.07;;
75441;SDS011;64019;48.312;14.226;2023-09-19T00:13:31;4.90;;;3.07;;
75441;SDS011;64019;48.312;14.226;2023-09-19T00:15:58;4.10;;;3.13;;
75441;SDS011;64019;48.312;14.226;2023-09-19T00:18:25;5.80;;;3.27;;
75441;SDS011;64019;48.312;14.226;2023-09-19T00:21:00;6.23;;;3.37;;
75441;SDS011;64019;48.312;14.226;2023-09-19T00:23:26;7.13;;;3.53;;
75441;SDS011;64019;48.312;14.226;2023-09-19T00:25:53;8.13;;;4.63;;
75441;SDS011;64019;48.312;14.226;2023-09-19T00:28:22;7.23;;;4.13;;
75441;SDS011;64019;48.312;14.226;2023-09-19T00:30:48;9.97;;;4.40;;
75441;SDS011;64019;48.312;14.226;2023-09-19T00:33:17;5.80;;;4.10;;
75441;SDS011;64019;48.312;14.226;2023-09-19T00:35:53;6.87;;;4.47;;
75441;SDS011;64019;48.312;14.226;2023-09-19T00:38:21;8.47;;;4.03;;
75441;SDS011;64019;48.312;14.226;2023-09-19T00:40:52;6.83;;;4.27;;
75441;SDS011;64019;48.312;14.226;2023-09-19T00:43:22;6.80;;;4.17;;
75441;SDS011;64019;48.312;14.226;2023-09-19T00:45:50;14.60;;;5.30;;
75441;SDS011;64019;48.312;14.226;2023-09-19T00:48:18;10.87;;;6.53;;
75441;SDS011;64019;48.312;14.226;2023-09-19T00:50:46;7.30;;;5.37;;
75441;SDS011;64019;48.312;14.226;2023-09-19T00:53:13;9.73;;;5.83;;
75441;SDS011;64019;48.312;14.226;2023-09-19T00:55:43;10.50;;;6.87;;
75441;SDS011;64019;48.312;14.226;2023-09-19T00:58:10;12.67;;;7.87;;
75441;SDS011;64019;48.312;14.226;2023-09-19T01:00:36;15.60;;;8.83;;
75441;SDS011;64019;48.312;14.226;2023-09-19T01:03:03;14.93;;;8.00;;
75441;SDS011;64019;48.312;14.226;2023-09-19T01:05:29;11.30;;;7.53;;
75441;SDS011;64019;48.312;14.226;2023-09-19T01:07:55;12.37;;;7.10;;
75441;SDS011;64019;48.312;14.226;2023-09-19T01:10:21;12.97;;;7.47;;
75441;SDS011;64019;48.312;14.226;2023-09-19T01:17:46;11.27;;;6.90;;
75441;SDS011;64019;48.312;14.226;2023-09-19T01:20:30;15.70;;;7.27;;
75441;SDS011;64019;48.312;14.226;2023-09-19T01:31:33;11.63;;;6.73;;
75441;SDS011;64019;48.312;14.226;2023-09-19T01:34:01;12.70;;;6.83;;
75441;SDS011;64019;48.312;14.226;2023-09-19T01:36:32;11.33;;;6.43;;
75441;SDS011;64019;48.312;14.226;2023-09-19T01:39:01;11.70;;;6.30;;
75441;SDS011;64019;48.312;14.226;2023-09-19T01:41:41;11.13;;;7.00;;
75441;SDS011;64019;48.312;14.226;2023-09-19T01:53:06;12.83;;;6.30;;
75441;SDS011;64019;48.312;14.226;2023-09-19T01:55:43;11.27;;;6.30;;
75441;SDS011;64019;48.312;14.226;2023-09-19T02:00:44;12.37;;;6.43;;
75441;SDS011;64019;48.312;14.226;2023-09-19T02:03:16;10.80;;;5.77;;
75441;SDS011;64019;48.312;14.226;2023-09-19T02:05:52;11.97;;;6.70;;
75441;SDS011;64019;48.312;14.226;2023-09-19T02:08:19;13.27;;;6.63;;
75441;SDS011;64019;48.312;14.226;2023-09-19T02:10:46;13.90;;;6.40;;
75441;SDS011;64019;48.312;14.226;2023-09-19T02:13:21;8.57;;;6.07;;
75441;SDS011;64019;48.312;14.226;2023-09-19T02:15:51;11.53;;;6.53;;
75441;SDS011;64019;48.312;14.226;2023-09-19T02:18:17;8.67;;;6.07;;
75441;SDS011;64019;48.312;14.226;2023-09-19T02:20:43;9.33;;;6.00;;
75441;SDS011;64019;48.312;14.226;2023-09-19T02:23:10;9.70;;;6.27;;
75441;SDS011;64019;48.312;14.226;2023-09-19T02:25:35;10.77;;;6.63;;
75441;SDS011;64019;48.312;14.226;2023-09-19T02:28:03;8.23;;;5.90;;
75441;SDS011;64019;48.312;14.226;2023-09-19T02:30:30;10.80;;;6.17;;
75441;SDS011;64019;48.312;14.226;2023-09-19T02:32:56;9.57;;;5.90;;
75441;SDS011;64019;48.312;14.226;2023-09-19T02:35:22;14.67;;;6.50;;
75441;SDS011;64019;48.312;14.226;2023-09-19T02:37:48;10.53;;;6.20;;
75441;SDS011;64019;48.312;14.226;2023-09-19T02:40:14;9.73;;;5.97;;
75441;SDS011;64019;48.312;14.226;2023-09-19T02:42:53;10.57;;;5.73;;
75441;SDS011;64019;48.312;14.226;2023-09-19T02:45:20;10.50;;;6.03;;
75441;SDS011;64019;48.312;14.226;2023-09-19T02:47:47;7.90;;;4.93;;
75441;SDS011;64019;48.312;14.226;2023-09-19T02:50:14;8.67;;;5.07;;
75441;SDS011;64019;48.312;14.226;2023-09-19T02:52:43;12.23;;;4.57;;
75441;SDS011;64019;48.312;14.226;2023-09-19T02:55:13;6.97;;;4.63;;
75441;SDS011;64019;48.312;14.226;2023-09-19T02:57:52;8.27;;;4.23;;
75441;SDS011;64019;48.312;14.226;2023-09-19T03:00:21;6.50;;;4.20;;
75441;SDS011;64019;48.312;14.226;2023-09-19T03:02:52;6.53;;;4.47;;
75441;SDS011;64019;48.312;14.226;2023-09-19T03:05:20;7.10;;;4.23;;
75441;SDS011;64019;48.312;14.226;2023-09-19T03:07:47;5.93;;;3.97;;
75441;SDS011;64019;48.312;14.226;2023-09-19T03:10:18;6.73;;;3.53;;
75441;SDS011;64019;48.312;14.226;2023-09-19T03:12:48;6.37;;;3.90;;
75441;SDS011;64019;48.312;14.226;2023-09-19T03:15:15;4.43;;;3.00;;
75441;SDS011;64019;48.312;14.226;2023-09-19T03:17:43;8.07;;;3.30;;
75441;SDS011;64019;48.312;14.226;2023-09-19T03:20:09;8.63;;;3.40;;
75441;SDS011;64019;48.312;14.226;2023-09-19T03:22:38;9.07;;;4.00;;
75441;SDS011;64019;48.312;14.226;2023-09-19T03:25:05;8.40;;;3.87;;
75441;SDS011;64019;48.312;14.226;2023-09-19T03:27:33;6.90;;;3.70;;
75441;SDS011;64019;48.312;14.226;2023-09-19T03:30:00;4.57;;;3.07;;
75441;SDS011;64019;48.312;14.226;2023-09-19T03:32:26;13.13;;;3.17;;
75441;SDS011;64019;48.312;14.226;2023-09-19T03:34:51;5.23;;;3.57;;
75441;SDS011;64019;48.312;14.226;2023-09-19T03:37:17;5.23;;;3.33;;
75441;SDS011;64019;48.312;14.226;2023-09-19T03:39:43;9.67;;;3.53;;
75441;SDS011;64019;48.312;14.226;2023-09-19T03:42:09;4.77;;;3.20;;
75441;SDS011;64019;48.312;14.226;2023-09-19T03:44:34;5.03;;;3.10;;
75441;SDS011;64019;48.312;14.226;2023-09-19T03:47:00;5.60;;;3.10;;
75441;SDS011;64019;48.312;14.226;2023-09-19T03:49:26;9.33;;;3.30;;
75441;SDS011;64019;48.312;14.226;2023-09-19T03:51:51;5.73;;;2.90;;
75441;SDS011;64019;48.312;14.226;2023-09-19T03:54:17;4.57;;;3.20;;
75441;SDS011;64019;48.312;14.226;2023-09-19T03:56:44;6.93;;;2.83;;
75441;SDS011;64019;48.312;14.226;2023-09-19T03:59:10;5.47;;;2.63;;
75441;SDS011;64019;48.312;14.226;2023-09-19T04:01:37;5.83;;;3.10;;
75441;SDS011;64019;48.312;14.226;2023-09-19T04:04:03;2.67;;;2.10;;
75441;SDS011;64019;48.312;14.226;2023-09-19T04:06:33;9.37;;;2.60;;
75441;SDS011;64019;48.312;14.226;2023-09-19T04:09:02;4.03;;;1.83;;
75441;SDS011;64019;48.312;14.226;2023-09-19T04:11:29;6.73;;;2.20;;
75441;SDS011;64019;48.312;14.226;2023-09-19T04:13:55;6.33;;;2.23;;
75441;SDS011;64019;48.312;14.226;2023-09-19T04:19:43;3.67;;;2.47;;
75441;SDS011;64019;48.312;14.226;2023-09-19T04:22:10;6.30;;;2.57;;
75441;SDS011;64019;48.312;14.226;2023-09-19T04:48:05;6.73;;;1.90;;
75441;SDS011;64019;48.312;14.226;2023-09-19T04:54:59;3.10;;;1.73;;
75441;SDS011;64019;48.312;14.226;2023-09-19T05:04:34;2.63;;;1.80;;
75441;SDS011;64019;48.312;14.226;2023-09-19T05:07:33;4.73;;;1.80;;
75441;SDS011;64019;48.312;14.226;2023-09-19T05:10:10;4.57;;;2.20;;
75441;SDS011;64019;48.312;14.226;2023-09-19T05:12:54;4.20;;;2.10;;
75441;SDS011;64019;48.312;14.226;2023-09-19T05:18:38;4.60;;;1.90;;
75441;SDS011;64019;48.312;14.226;2023-09-19T05:21:20;5.43;;;1.70;;
75441;SDS011;64019;48.312;14.226;2023-09-19T05:23:59;2.20;;;1.83;;
75441;SDS011;64019;48.312;14.226;2023-09-19T05:26:31;2.53;;;1.57;;
75441;SDS011;64019;48.312;14.226;2023-09-19T05:28:57;2.77;;;1.90;;
75441;SDS011;64019;48.312;14.226;2023-09-19T05:31:23;3.83;;;2.10;;
75441;SDS011;64019;48.312;14.226;2023-09-19T05:33:50;4.17;;;1.80;;
75441;SDS011;64019;48.312;14.226;2023-09-19T05:36:19;7.73;;;1.60;;
75441;SDS011;64019;48.312;14.226;2023-09-19T05:38:45;8.97;;;2.00;;
75441;SDS011;64019;48.312;14.226;2023-09-19T05:41:13;4.53;;;2.37;;
75441;SDS011;64019;48.312;14.226;2023-09-19T05:43:40;8.97;;;2.37;;
75441;SDS011;64019;48.312;14.226;2023-09-19T05:46:06;4.90;;;2.67;;
75441;SDS011;64019;48.312;14.226;2023-09-19T05:48:33;5.47;;;3.17;;
75441;SDS011;64019;48.312;14.226;2023-09-19T05:50:59;5.83;;;2.63;;
75441;SDS011;64019;48.312;14.226;2023-09-19T05:53:26;10.40;;;2.50;;
75441;SDS011;64019;48.312;14.226;2023-09-19T05:55:51;5.13;;;2.73;;
75441;SDS011;64019;48.312;14.226;2023-09-19T05:58:19;3.30;;;2.50;;
75441;SDS011;64019;48.312;14.226;2023-09-19T06:00:45;6.03;;;3.47;;
75441;SDS011;64019;48.312;14.226;2023-09-19T06:03:12;6.20;;;4.13;;
75441;SDS011;64019;48.312;14.226;2023-09-19T06:05:39;4.93;;;3.73;;
75441;SDS011;64019;48.312;14.226;2023-09-19T06:08:06;6.73;;;4.20;;
75441;SDS011;64019;48.312;14.226;2023-09-19T06:10:33;6.53;;;4.30;;
75441;SDS011;64019;48.312;14.226;2023-09-19T06:13:00;8.53;;;4.80;;
75441;SDS011;64019;48.312;14.226;2023-09-19T06:15:29;9.87;;;4.43;;
75441;SDS011;64019;48.312;14.226;2023-09-19T06:17:57;6.80;;;3.90;;
75441;SDS011;64019;48.312;14.226;2023-09-19T06:20:24;6.73;;;3.90;;
75441;SDS011;64019;48.312;14.226;2023-09-19T06:22:51;9.47;;;3.47;;
75441;SDS011;64019;48.312;14.226;2023-09-19T06:25:18;6.07;;;3.50;;
75441;SDS011;64019;48.312;14.226;2023-09-19T06:34:30;3.70;;;2.37;;
75441;SDS011;64019;48.312;14.226;2023-09-19T06:36:55;6.83;;;2.90;;
75441;SDS011;64019;48.312;14.226;2023-09-19T06:39:21;4.77;;;2.30;;
75441;SDS011;64019;48.312;14.226;2023-09-19T06:41:48;6.07;;;2.70;;
75441;SDS011;64019;48.312;14.226;2023-09-19T06:50:17;3.20;;;2.07;;
75441;SDS011;64019;48.312;14.226;2023-09-19T06:56:13;3.57;;;2.10;;
75441;SDS011;64019;48.312;14.226;2023-09-19T06:59:03;4.07;;;1.80;;
75441;SDS011;64019;48.312;14.226;2023-09-19T07:01:41;5.37;;;1.97;;
75441;SDS011;64019;48.312;14.226;2023-09-19T07:04:20;4.67;;;2.13;;
75441;SDS011;64019;48.312;14.226;2023-09-19T07:06:49;2.87;;;1.70;;
75441;SDS011;64019;48.312;14.226;2023-09-19T07:09:17;5.43;;;1.60;;
75441;SDS011;64019;48.312;14.226;2023-09-19T07:11:47;3.07;;;1.73;;
75441;SDS011;64019;48.312;14.226;2023-09-19T07:14:18;4.37;;;1.43;;
75441;SDS011;64019;48.312;14.226;2023-09-19T07:16:46;5.87;;;1.73;;
75441;SDS011;64019;48.312;14.226;2023-09-19T07:19:16;4.97;;;1.53;;
75441;SDS011;64019;48.312;14.226;2023-09-19T07:21:42;4.20;;;1.57;;
75441;SDS011;64019;48.312;14.226;2023-09-19T07:24:07;4.83;;;1.40;;
75441;SDS011;64019;48.312;14.226;2023-09-19T07:26:35;2.60;;;1.87;;
75441;SDS011;64019;48.312;14.226;2023-09-19T07:29:12;1.87;;;1.60;;
75441;SDS011;64019;48.312;14.226;2023-09-19T07:31:50;2.30;;;1.40;;
75441;SDS011;64019;48.312;14.226;2023-09-19T07:34:28;1.83;;;1.43;;
75441;SDS011;64019;48.312;14.226;2023-09-19T07:36:54;4.20;;;1.50;;
75441;SDS011;64019;48.312;14.226;2023-09-19T07:39:19;6.03;;;1.73;;
75441;SDS011;64019;48.312;14.226;2023-09-19T07:41:46;2.90;;;1.57;;
75441;SDS011;64019;48.312;14.226;2023-09-19T07:44:27;3.77;;;1.30;;
75441;SDS011;64019;48.312;14.226;2023-09-19T07:50:12;2.10;;;1.43;;
75441;SDS011;64019;48.312;14.226;2023-09-19T07:52:50;3.33;;;1.57;;
75441;SDS011;64019;48.312;14.226;2023-09-19T07:55:23;3.00;;;1.53;;
75441;SDS011;64019;48.312;14.226;2023-09-19T07:57:50;1.93;;;1.33;;
75441;SDS011;64019;48.312;14.226;2023-09-19T08:00:20;5.07;;;1.57;;
75441;SDS011;64019;48.312;14.226;2023-09-19T08:02:50;3.63;;;1.83;;
75441;SDS011;64019;48.312;14.226;2023-09-19T08:05:19;3.27;;;1.60;;
75441;SDS011;64019;48.312;14.226;2023-09-19T08:07:46;2.20;;;1.17;;
75441;SDS011;64019;48.312;14.226;2023-09-19T08:10:22;7.63;;;1.50;;
75441;SDS011;64019;48.312;14.226;2023-09-19T08:12:52;1.57;;;1.13;;
75441;SDS011;64019;48.312;14.226;2023-09-19T08:15:23;3.00;;;1.50;;
75441;SDS011;64019;48.312;14.226;2023-09-19T08:17:48;3.40;;;1.33;;
75441;SDS011;64019;48.312;14.226;2023-09-19T08:20:15;3.47;;;1.30;;
75441;SDS011;64019;48.312;14.226;2023-09-19T08:22:47;2.27;;;1.40;;
75441;SDS011;64019;48.312;14.226;2023-09-19T08:25:15;2.00;;;1.23;;
75441;SDS011;64019;48.312;14.226;2023-09-19T08:27:44;3.03;;;1.40;;
75441;SDS011;64019;48.312;14.226;2023-09-19T08:30:17;3.27;;;1.37;;
75441;SDS011;64019;48.312;14.226;2023-09-19T08:32:48;3.63;;;1.60;;
75441;SDS011;64019;48.312;14.226;2023-09-19T08:35:23;3.60;;;1.47;;
75441;SDS011;64019;48.312;14.226;2023-09-19T08:37:48;5.03;;;1.70;;
75441;SDS011;64019;48.312;14.226;2023-09-19T08:40:14;3.23;;;1.53;;
75441;SDS011;64019;48.312;14.226;2023-09-19T08:42:53;2.83;;;1.90;;
75441;SDS011;64019;48.312;14.226;2023-09-19T08:45:20;1.97;;;1.30;;
75441;SDS011;64019;48.312;14.226;2023-09-19T08:47:54;5.10;;;1.90;;
75441;SDS011;64019;48.312;14.226;2023-09-19T08:50:30;3.87;;;1.30;;
75441;SDS011;64019;48.312;14.226;2023-09-19T08:52:56;2.10;;;1.33;;
75441;SDS011;64019;48.312;14.226;2023-09-19T08:55:28;4.40;;;1.40;;
75441;SDS011;64019;48.312;14.226;2023-09-19T08:58:03;6.57;;;1.33;;
75441;SDS011;64019;48.312;14.226;2023-09-19T09:00:31;2.03;;;1.17;;
75441;SDS011;64019;48.312;14.226;2023-09-19T09:03:02;5.80;;;1.20;;
75441;SDS011;64019;48.312;14.226;2023-09-19T09:09:05;2.73;;;1.50;;
75441;SDS011;64019;48.312;14.226;2023-09-19T09:11:32;1.47;;;0.90;;
75441;SDS011;64019;48.312;14.226;2023-09-19T09:13:58;2.90;;;1.30;;
75441;SDS011;64019;48.312;14.226;2023-09-19T09:16:25;2.00;;;1.13;;
75441;SDS011;64019;48.312;14.226;2023-09-19T09:18:51;4.67;;;1.37;;
75441;SDS011;64019;48.312;14.226;2023-09-19T09:21:19;1.97;;;1.10;;
75441;SDS011;64019;48.312;14.226;2023-09-19T09:27:12;2.43;;;1.30;;
75441;SDS011;64019;48.312;14.226;2023-09-19T09:30:00;4.03;;;1.43;;
75441;SDS011;64019;48.312;14.226;2023-09-19T09:33:22;3.00;;;1.33;;
75441;SDS011;64019;48.312;14.226;2023-09-19T09:36:10;1.47;;;1.20;;
75441;SDS011;64019;48.312;14.226;2023-09-19T09:39:05;3.93;;;1.30;;
75441;SDS011;64019;48.312;14.226;2023-09-19T09:41:51;3.37;;;1.00;;
75441;SDS011;64019;48.312;14.226;2023-09-19T09:44:24;1.77;;;1.30;;
75441;SDS011;64019;48.312;14.226;2023-09-19T09:46:59;2.67;;;1.20;;
75441;SDS011;64019;48.312;14.226;2023-09-19T09:50:06;4.07;;;1.20;;
75441;SDS011;64019;48.312;14.226;2023-09-19T09:52:45;2.77;;;1.50;;
75441;SDS011;64019;48.312;14.226;2023-09-19T09:55:28;2.07;;;1.10;;
75441;SDS011;64019;48.312;14.226;2023-09-19T10:00:57;2.77;;;1.20;;
75441;SDS011;64019;48.312;14.226;2023-09-19T10:03:32;1.67;;;1.23;;
75441;SDS011;64019;48.312;14.226;2023-09-19T10:06:06;2.83;;;1.37;;
75441;SDS011;64019;48.312;14.226;2023-09-19T10:09:01;4.57;;;1.30;;
75441;SDS011;64019;48.312;14.226;2023-09-19T10:11:40;2.10;;;1.40;;
75441;SDS011;64019;48.312;14.226;2023-09-19T10:14:28;3.10;;;1.30;;
75441;SDS011;64019;48.312;14.226;2023-09-19T10:17:06;2.90;;;1.40;;
75441;SDS011;64019;48.312;14.226;2023-09-19T10:20:14;5.27;;;1.47;;
75441;SDS011;64019;48.312;14.226;2023-09-19T10:22:45;3.10;;;1.47;;
75441;SDS011;64019;48.312;14.226;2023-09-19T10:25:29;2.30;;;1.30;;
75441;SDS011;64019;48.312;14.226;2023-09-19T10:28:05;2.43;;;1.27;;
75441;SDS011;64019;48.312;14.226;2023-09-19T10:30:45;5.13;;;1.23;;
75441;SDS011;64019;48.312;14.226;2023-09-19T10:33:13;2.33;;;1.07;;
75441;SDS011;64019;48.312;14.226;2023-09-19T10:35:45;4.57;;;1.23;;
75441;SDS011;64019;48.312;14.226;2023-09-19T10:38:13;1.40;;;1.10;;
75441;SDS011;64019;48.312;14.226;2023-09-19T10:40:44;1.87;;;1.30;;
75441;SDS011;64019;48.312;14.226;2023-09-19T10:43:15;2.73;;;1.00;;
75441;SDS011;64019;48.312;14.226;2023-09-19T10:45:43;2.23;;;0.90;;
75441;SDS011;64019;48.312;14.226;2023-09-19T10:48:14;2.47;;;1.10;;
75441;SDS011;64019;48.312;14.226;2023-09-19T10:53:17;2.53;;;1.03;;
75441;SDS011;64019;48.312;14.226;2023-09-19T10:56:18;1.80;;;1.10;;
75441;SDS011;64019;48.312;14.226;2023-09-19T10:58:42;3.40;;;1.00;;
75441;SDS011;64019;48.312;14.226;2023-09-19T11:01:09;1.53;;;0.90;;
75441;SDS011;64019;48.312;14.226;2023-09-19T11:03:43;3.70;;;1.00;;
75441;SDS011;64019;48.312;14.226;2023-09-19T11:06:12;3.27;;;1.10;;
75441;SDS011;64019;48.312;14.226;2023-09-19T11:30:34;1.87;;;1.23;;
75441;SDS011;64019;48.312;14.226;2023-09-19T11:33:20;1.80;;;0.97;;
75441;SDS011;64019;48.312;14.226;2023-09-19T11:35:59;1.73;;;1.17;;
75441;SDS011;64019;48.312;14.226;2023-09-19T11:44:32;2.10;;;0.93;;
75441;SDS011;64019;48.312;14.226;2023-09-19T11:46:51;1.57;;;1.10;;
75441;SDS011;64019;48.312;14.226;2023-09-19T11:49:17;2.50;;;0.87;;
75441;SDS011;64019;48.312;14.226;2023-09-19T11:52:03;4.40;;;1.20;;
75441;SDS011;64019;48.312;14.226;2023-09-19T11:54:31;3.10;;;1.20;;
75441;SDS011;64019;48.312;14.226;2023-09-19T11:56:57;3.63;;;1.10;;
75441;SDS011;64019;48.312;14.226;2023-09-19T11:59:25;2.23;;;1.10;;
75441;SDS011;64019;48.312;14.226;2023-09-19T12:02:06;1.30;;;1.10;;
75441;SDS011;64019;48.312;14.226;2023-09-19T12:04:55;2.47;;;1.27;;
75441;SDS011;64019;48.312;14.226;2023-09-19T12:07:21;2.80;;;1.03;;
75441;SDS011;64019;48.312;14.226;2023-09-19T12:09:47;2.83;;;0.93;;
75441;SDS011;64019;48.312;14.226;2023-09-19T12:12:24;2.43;;;1.10;;
75441;SDS011;64019;48.312;14.226;2023-09-19T12:14:55;1.53;;;0.90;;
75441;SDS011;64019;48.312;14.226;2023-09-19T12:17:35;1.37;;;1.03;;
75441;SDS011;64019;48.312;14.226;2023-09-19T12:20:01;1.70;;;1.13;;
75441;SDS011;64019;48.312;14.226;2023-09-19T12:22:43;2.33;;;1.17;;
75441;SDS011;64019;48.312;14.226;2023-09-19T12:25:11;5.47;;;1.50;;
75441;SDS011;64019;48.312;14.226;2023-09-19T12:27:44;5.97;;;1.23;;
75441;SDS011;64019;48.312;14.226;2023-09-19T12:30:17;3.57;;;1.03;;
75441;SDS011;64019;48.312;14.226;2023-09-19T12:32:44;1.20;;;1.00;;
75441;SDS011;64019;48.312;14.226;2023-09-19T12:35:11;2.40;;;1.03;;
75441;SDS011;64019;48.312;14.226;2023-09-19T12:38:02;1.77;;;1.20;;
75441;SDS011;64019;48.312;14.226;2023-09-19T12:40:28;3.43;;;1.27;;
75441;SDS011;64019;48.312;14.226;2023-09-19T12:42:58;2.63;;;1.27;;
75441;SDS011;64019;48.312;14.226;2023-09-19T12:45:24;4.07;;;1.23;;
75441;SDS011;64019;48.312;14.226;2023-09-19T12:53:30;9.07;;;1.40;;
75441;SDS011;64019;48.312;14.226;2023-09-19T12:56:05;3.80;;;1.33;;
75441;SDS011;64019;48.312;14.226;2023-09-19T12:58:33;4.47;;;1.23;;
75441;SDS011;64019;48.312;14.226;2023-09-19T13:01:00;2.63;;;0.80;;
75441;SDS011;64019;48.312;14.226;2023-09-19T13:03:30;2.60;;;1.00;;
75441;SDS011;64019;48.312;14.226;2023-09-19T13:06:01;6.57;;;1.43;;
75441;SDS011;64019;48.312;14.226;2023-09-19T13:11:52;1.27;;;0.90;;
75441;SDS011;64019;48.312;14.226;2023-09-19T13:14:34;5.17;;;0.90;;
75441;SDS011;64019;48.312;14.226;2023-09-19T13:17:12;5.83;;;1.20;;
75441;SDS011;64019;48.312;14.226;2023-09-19T13:19:50;3.00;;;1.20;;
75441;SDS011;64019;48.312;14.226;2023-09-19T13:25:24;5.30;;;1.03;;
75441;SDS011;64019;48.312;14.226;2023-09-19T13:27:52;1.43;;;0.93;;
75441;SDS011;64019;48.312;14.226;2023-09-19T13:30:19;1.90;;;0.90;;
75441;SDS011;64019;48.312;14.226;2023-09-19T13:32:46;1.67;;;0.50;;
75441;SDS011;64019;48.312;14.226;2023-09-19T13:35:13;4.07;;;0.60;;
75441;SDS011;64019;48.312;14.226;2023-09-19T13:37:40;2.10;;;0.67;;
75441;SDS011;64019;48.312;14.226;2023-09-19T13:40:09;4.73;;;0.70;;
75441;SDS011;64019;48.312;14.226;2023-09-19T13:42:36;2.10;;;0.40;;
75441;SDS011;64019;48.312;14.226;2023-09-19T13:45:02;2.37;;;0.60;;
75441;SDS011;64019;48.312;14.226;2023-09-19T13:47:29;3.37;;;0.63;;
75441;SDS011;64019;48.312;14.226;2023-09-19T13:49:55;2.13;;;0.80;;
75441;SDS011;64019;48.312;14.226;2023-09-19T13:52:22;0.90;;;0.60;;
75441;SDS011;64019;48.312;14.226;2023-09-19T13:54:48;1.33;;;0.70;;
75441;SDS011;64019;48.312;14.226;2023-09-19T13:57:18;2.43;;;0.70;;
75441;SDS011;64019;48.312;14.226;2023-09-19T13:59:43;1.73;;;0.60;;
75441;SDS011;64019;48.312;14.226;2023-09-19T14:05:33;1.73;;;1.10;;
75441;SDS011;64019;48.312;14.226;2023-09-19T14:08:19;1.27;;;0.60;;
75441;SDS011;64019;48.312;14.226;2023-09-19T14:11:05;1.53;;;0.90;;
75441;SDS011;64019;48.312;14.226;2023-09-19T14:13:31;0.70;;;0.60;;
75441;SDS011;64019;48.312;14.226;2023-09-19T14:15:57;3.07;;;0.77;;
75441;SDS011;64019;48.312;14.226;2023-09-19T14:18:29;1.47;;;0.73;;
75441;SDS011;64019;48.312;14.226;2023-09-19T14:20:54;2.40;;;0.70;;
75441;SDS011;64019;48.312;14.226;2023-09-19T14:23:20;1.50;;;1.00;;
75441;SDS011;64019;48.312;14.226;2023-09-19T14:25:46;4.23;;;1.10;;
75441;SDS011;64019;48.312;14.226;2023-09-19T14:28:11;1.77;;;0.77;;
75441;SDS011;64019;48.312;14.226;2023-09-19T14:30:37;3.97;;;0.83;;
75441;SDS011;64019;48.312;14.226;2023-09-19T14:33:04;1.13;;;0.67;;
75441;SDS011;64019;48.312;14.226;2023-09-19T14:35:30;3.10;;;0.70;;
75441;SDS011;64019;48.312;14.226;2023-09-19T14:37:56;3.97;;;0.90;;
75441;SDS011;64019;48.312;14.226;2023-09-19T14:40:22;0.93;;;0.40;;
75441;SDS011;64019;48.312;14.226;2023-09-19T14:42:47;5.00;;;0.90;;
75441;SDS011;64019;48.312;14.226;2023-09-19T14:45:13;1.03;;;0.70;;
75441;SDS011;64019;48.312;14.226;2023-09-19T14:47:43;1.07;;;0.70;;
75441;SDS011;64019;48.312;14.226;2023-09-19T14:56:46;1.80;;;1.00;;
75441;SDS011;64019;48.312;14.226;2023-09-19T14:59:19;3.27;;;0.80;;
75441;SDS011;64019;48.312;14.226;2023-09-19T15:02:03;1.33;;;0.80;;
75441;SDS011;64019;48.312;14.226;2023-09-19T15:04:34;3.60;;;0.80;;
75441;SDS011;64019;48.312;14.226;2023-09-19T15:07:06;1.57;;;0.67;;
75441;SDS011;64019;48.312;14.226;2023-09-19T15:09:31;0.90;;;0.70;;
75441;SDS011;64019;48.312;14.226;2023-09-19T15:11:58;1.20;;;0.73;;
75441;SDS011;64019;48.312;14.226;2023-09-19T15:14:24;4.20;;;1.20;;
75441;SDS011;64019;48.312;14.226;2023-09-19T15:16:54;0.93;;;0.77;;
75441;SDS011;64019;48.312;14.226;2023-09-19T15:19:20;0.70;;;0.57;;
75441;SDS011;64019;48.312;14.226;2023-09-19T15:21:47;0.90;;;0.80;;
75441;SDS011;64019;48.312;14.226;2023-09-19T15:24:13;3.13;;;1.00;;
75441;SDS011;64019;48.312;14.226;2023-09-19T15:26:40;3.40;;;1.00;;
75441;SDS011;64019;48.312;14.226;2023-09-19T15:29:08;1.10;;;0.73;;
75441;SDS011;64019;48.312;14.226;2023-09-19T15:31:37;2.07;;;0.90;;
75441;SDS011;64019;48.312;14.226;2023-09-19T15:34:03;1.27;;;0.80;;
75441;SDS011;64019;48.312;14.226;2023-09-19T15:36:30;1.00;;;0.67;;
75441;SDS011;64019;48.312;14.226;2023-09-19T15:38:59;1.63;;;1.03;;
75441;SDS011;64019;48.312;14.226;2023-09-19T15:41:30;1.80;;;0.80;;
75441;SDS011;64019;48.312;14.226;2023-09-19T15:43:57;1.13;;;0.77;;
75441;SDS011;64019;48.312;14.226;2023-09-19T15:46:27;2.77;;;1.73;;
75441;SDS011;64019;48.312;14.226;2023-09-19T15:48:54;2.30;;;0.90;;
75441;SDS011;64019;48.312;14.226;2023-09-19T15:51:21;1.27;;;0.70;;
75441;SDS011;64019;48.312;14.226;2023-09-19T15:53:47;2.53;;;0.97;;
75441;SDS011;64019;48.312;14.226;2023-09-19T15:56:18;2.03;;;1.10;;
75441;SDS011;64019;48.312;14.226;2023-09-19T15:58:46;1.07;;;0.50;;
75441;SDS011;64019;48.312;14.226;2023-09-19T16:01:13;1.20;;;1.03;;
75441;SDS011;64019;48.312;14.226;2023-09-19T16:03:43;2.70;;;1.47;;
75441;SDS011;64019;48.312;14.226;2023-09-19T16:06:15;0.93;;;0.83;;
75441;SDS011;64019;48.312;14.226;2023-09-19T16:08:45;2.63;;;0.80;;
75441;SDS011;64019;48.312;14.226;2023-09-19T16:11:12;2.10;;;0.73;;
75441;SDS011;64019;48.312;14.226;2023-09-19T16:13:39;1.80;;;1.10;;
75441;SDS011;64019;48.312;14.226;2023-09-19T16:16:06;4.10;;;0.83;;
75441;SDS011;64019;48.312;14.226;2023-09-19T16:18:33;1.50;;;0.80;;
75441;SDS011;64019;48.312;14.226;2023-09-19T16:21:05;3.23;;;1.10;;
75441;SDS011;64019;48.312;14.226;2023-09-19T16:23:35;1.00;;;0.90;;
75441;SDS011;64019;48.312;14.226;2023-09-19T16:26:05;2.23;;;1.27;;
75441;SDS011;64019;48.312;14.226;2023-09-19T16:28:38;1.93;;;1.30;;
75441;SDS011;64019;48.312;14.226;2023-09-19T16:31:05;1.00;;;0.80;;
75441;SDS011;64019;48.312;14.226;2023-09-19T16:33:33;1.90;;;1.13;;
75441;SDS011;64019;48.312;14.226;2023-09-19T16:35:59;4.43;;;1.23;;
75441;SDS011;64019;48.312;14.226;2023-09-19T16:38:26;2.13;;;1.30;;
75441;SDS011;64019;48.312;14.226;2023-09-19T16:40:56;4.90;;;1.10;;
75441;SDS011;64019;48.312;14.226;2023-09-19T16:43:23;3.57;;;1.07;;
75441;SDS011;64019;48.312;14.226;2023-09-19T16:45:56;3.33;;;0.80;;
75441;SDS011;64019;48.312;14.226;2023-09-19T16:48:26;1.40;;;1.10;;
75441;SDS011;64019;48.312;14.226;2023-09-19T16:50:54;1.53;;;1.07;;
75441;SDS011;64019;48.312;14.226;2023-09-19T16:53:24;4.60;;;1.00;;
75441;SDS011;64019;48.312;14.226;2023-09-19T16:55:49;2.20;;;0.80;;
75441;SDS011;64019;48.312;14.226;2023-09-19T16:58:15;1.27;;;0.80;;
75441;SDS011;64019;48.312;14.226;2023-09-19T17:00:42;0.80;;;0.80;;
75441;SDS011;64019;48.312;14.226;2023-09-19T17:03:10;1.07;;;0.70;;
75441;SDS011;64019;48.312;14.226;2023-09-19T17:05:37;2.70;;;0.70;;
75441;SDS011;64019;48.312;14.226;2023-09-19T17:08:05;1.67;;;0.93;;
75441;SDS011;64019;48.312;14.226;2023-09-19T17:10:32;2.13;;;1.00;;
75441;SDS011;64019;48.312;14.226;2023-09-19T17:12:58;3.30;;;1.07;;
75441;SDS011;64019;48.312;14.226;2023-09-19T17:15:24;5.10;;;1.20;;
75441;SDS011;64019;48.312;14.226;2023-09-19T17:17:50;1.93;;;0.93;;
75441;SDS011;64019;48.312;14.226;2023-09-19T17:20:17;2.67;;;1.00;;